Time;durP1;ratioP1;P1;durP2;ratioP2;P2;SDS_P1;SDS_P2;PMS_P1;PMS_P2;Temp;Humidity;BMP_temperature;BMP_pressure;BME280_temperature;BME280_humidity;BME280_pressure;Samples;Min_cycle;Max_cycle;Signal;HPM_P1;HPM_P2
2022/08/03 00:00:27;;;;;;;5.97;2.63;;;;;;;;;;5069090;28;20237;-15
2022/08/03 00:02:54;;;;;;;3.17;2.47;;;;;;;;;;5051977;28;20230;-15
2022/08/03 00:05:22;;;;;;;5.03;2.50;;;;;;;;;;5065054;28;21251;-15
2022/08/03 00:07:50;;;;;;;4.18;2.22;;;;;;;;;;5071948;28;20328;-15
2022/08/03 00:10:20;;;;;;;5.80;2.35;;;;;;;;;;5072115;28;20234;-15
2022/08/03 00:12:48;;;;;;;4.90;2.47;;;;;;;;;;5072187;28;20225;-16
2022/08/03 00:15:15;;;;;;;5.22;2.40;;;;;;;;;;5062203;28;20228;-16
2022/08/03 00:17:43;;;;;;;3.00;2.30;;;;;;;;;;5065885;28;20230;-15
2022/08/03 00:20:20;;;;;;;3.78;2.40;;;;;;;;;;5062288;28;20233;-16
2022/08/03 00:22:47;;;;;;;4.07;2.80;;;;;;;;;;5055843;28;20721;-15
2022/08/03 00:25:15;;;;;;;6.18;2.67;;;;;;;;;;5058914;28;20320;-15
2022/08/03 00:27:43;;;;;;;8.77;2.35;;;;;;;;;;5057733;28;21069;-16
2022/08/03 00:30:11;;;;;;;3.80;2.25;;;;;;;;;;5070749;28;20263;-15
2022/08/03 00:32:42;;;;;;;6.60;2.55;;;;;;;;;;5050815;28;20284;-15
2022/08/03 00:35:11;;;;;;;5.28;2.33;;;;;;;;;;5066757;28;20268;-15
2022/08/03 00:37:59;;;;;;;5.00;2.42;;;;;;;;;;5059703;28;20741;-15
2022/08/03 00:40:26;;;;;;;6.65;2.50;;;;;;;;;;5069526;28;20316;-15
2022/08/03 00:42:55;;;;;;;9.70;2.50;;;;;;;;;;5061595;28;20226;-15
2022/08/03 00:45:23;;;;;;;4.28;2.53;;;;;;;;;;5065434;28;20233;-15
2022/08/03 00:47:51;;;;;;;3.78;2.72;;;;;;;;;;5050583;28;20237;-15
2022/08/03 00:50:18;;;;;;;3.45;2.35;;;;;;;;;;5066816;28;20225;-15
2022/08/03 00:52:46;;;;;;;7.78;2.58;;;;;;;;;;5063973;28;20226;-16
2022/08/03 00:55:13;;;;;;;4.25;2.53;;;;;;;;;;5051226;28;20230;-15
2022/08/03 00:57:41;;;;;;;5.28;2.63;;;;;;;;;;5049709;28;20298;-15
2022/08/03 01:00:11;;;;;;;3.75;2.50;;;;;;;;;;5051150;28;20284;-15
2022/08/03 01:02:38;;;;;;;5.63;2.38;;;;;;;;;;5065439;28;20317;-15
2022/08/03 01:05:06;;;;;;;5.40;2.40;;;;;;;;;;5061963;28;20233;-16
2022/08/03 01:07:37;;;;;;;5.00;2.30;;;;;;;;;;5068020;28;20241;-15
2022/08/03 01:10:06;;;;;;;4.43;2.63;;;;;;;;;;5060425;28;20225;-15
2022/08/03 01:12:35;;;;;;;7.22;2.88;;;;;;;;;;5055436;28;20619;-15
2022/08/03 01:15:03;;;;;;;4.90;2.30;;;;;;;;;;5050854;28;20269;-15
2022/08/03 01:17:34;;;;;;;6.18;2.35;;;;;;;;;;5051695;28;20989;-15
2022/08/03 01:20:02;;;;;;;7.70;2.42;;;;;;;;;;5062968;28;20737;-15
2022/08/03 01:22:44;;;;;;;5.07;2.38;;;;;;;;;;5049550;28;20268;-15
2022/08/03 01:25:15;;;;;;;4.22;2.42;;;;;;;;;;5062931;28;20245;-15
2022/08/03 01:27:45;;;;;;;7.65;2.30;;;;;;;;;;5049295;28;20720;-15
2022/08/03 01:30:14;;;;;;;7.15;2.67;;;;;;;;;;5061543;28;20233;-15
2022/08/03 01:32:42;;;;;;;5.10;2.60;;;;;;;;;;5061660;28;20333;-15
2022/08/03 01:35:32;;;;;;;4.85;2.55;;;;;;;;;;5051191;28;20235;-15
2022/08/03 01:38:05;;;;;;;6.53;2.70;;;;;;;;;;5051809;28;20320;-15
2022/08/03 01:40:34;;;;;;;7.40;2.28;;;;;;;;;;5069631;28;20229;-15
2022/08/03 01:43:01;;;;;;;3.75;2.03;;;;;;;;;;5070681;28;20225;-15
2022/08/03 01:45:30;;;;;;;6.38;2.22;;;;;;;;;;5070434;28;20241;-15
2022/08/03 01:48:00;;;;;;;4.60;2.20;;;;;;;;;;5059679;28;20796;-15
2022/08/03 01:50:28;;;;;;;4.43;2.58;;;;;;;;;;5054562;28;20943;-15
2022/08/03 01:52:56;;;;;;;5.68;2.90;;;;;;;;;;5061412;28;20241;-15
2022/08/03 01:55:24;;;;;;;4.82;2.90;;;;;;;;;;5065370;28;20229;-15
2022/08/03 01:57:51;;;;;;;7.35;3.10;;;;;;;;;;5070769;28;20236;-15
2022/08/03 02:00:34;;;;;;;3.22;2.65;;;;;;;;;;5054313;28;20234;-15
2022/08/03 02:03:01;;;;;;;6.80;2.92;;;;;;;;;;5050791;28;20226;-15
2022/08/03 02:05:29;;;;;;;7.35;3.10;;;;;;;;;;5064220;28;20714;-15
2022/08/03 02:07:56;;;;;;;7.43;3.08;;;;;;;;;;5050165;28;20700;-15
2022/08/03 02:10:23;;;;;;;5.15;2.63;;;;;;;;;;5060039;28;20225;-15
2022/08/03 02:13:02;;;;;;;10.40;2.80;;;;;;;;;;5042167;28;21061;-15
2022/08/03 02:15:29;;;;;;;4.75;2.47;;;;;;;;;;5067008;28;20268;-15
2022/08/03 02:17:58;;;;;;;7.35;2.42;;;;;;;;;;5068697;28;20226;-15
2022/08/03 02:20:25;;;;;;;6.68;2.50;;;;;;;;;;5086404;22;20228;-17
2022/08/03 02:22:53;;;;;;;5.13;2.70;;;;;;;;;;5066470;28;20255;-17
2022/08/03 02:25:20;;;;;;;6.50;2.72;;;;;;;;;;5070729;28;20229;-17
2022/08/03 02:27:49;;;;;;;5.65;2.97;;;;;;;;;;5070059;28;20237;-17
2022/08/03 02:30:16;;;;;;;8.82;2.85;;;;;;;;;;5070909;28;20232;-17
2022/08/03 02:32:43;;;;;;;8.73;2.85;;;;;;;;;;5060595;28;20683;-17
2022/08/03 02:35:13;;;;;;;6.45;2.92;;;;;;;;;;5069280;28;20226;-17
2022/08/03 02:37:41;;;;;;;5.97;2.97;;;;;;;;;;5053797;28;20293;-17
2022/08/03 02:40:11;;;;;;;11.52;3.05;;;;;;;;;;5068251;28;20250;-18
2022/08/03 02:42:39;;;;;;;10.40;2.75;;;;;;;;;;5068731;28;20236;-17
2022/08/03 02:45:06;;;;;;;7.53;2.83;;;;;;;;;;5055621;28;20241;-17
2022/08/03 02:47:36;;;;;;;8.68;2.90;;;;;;;;;;5067430;28;20241;-17
2022/08/03 02:50:22;;;;;;;5.57;2.95;;;;;;;;;;5071442;28;20230;-17
2022/08/03 02:52:50;;;;;;;10.38;2.78;;;;;;;;;;5072791;28;20734;-17
2022/08/03 02:55:17;;;;;;;7.93;3.15;;;;;;;;;;5072249;28;20232;-18
2022/08/03 02:57:44;;;;;;;6.30;2.95;;;;;;;;;;5073356;28;20272;-17
2022/08/03 03:00:12;;;;;;;9.55;2.60;;;;;;;;;;5071499;28;20240;-16
2022/08/03 03:02:53;;;;;;;6.97;3.03;;;;;;;;;;5072803;28;20261;-17
2022/08/03 03:05:22;;;;;;;7.43;3.22;;;;;;;;;;5072077;28;20233;-17
2022/08/03 03:08:10;;;;;;;4.75;2.63;;;;;;;;;;5061140;28;20252;-17
2022/08/03 03:10:46;;;;;;;9.40;3.50;;;;;;;;;;5073101;28;20976;-17
2022/08/03 03:13:14;;;;;;;7.63;3.25;;;;;;;;;;5072966;28;20239;-18
2022/08/03 03:15:41;;;;;;;7.32;3.10;;;;;;;;;;5073162;28;20233;-18
2022/08/03 03:18:09;;;;;;;6.18;3.13;;;;;;;;;;5072372;28;20732;-17
2022/08/03 03:20:39;;;;;;;8.63;2.53;;;;;;;;;;5069377;28;20238;-17
2022/08/03 03:23:07;;;;;;;5.97;2.63;;;;;;;;;;5059349;28;20997;-17
2022/08/03 03:25:34;;;;;;;7.45;3.15;;;;;;;;;;5070961;28;20225;-17
2022/08/03 03:28:01;;;;;;;5.68;3.03;;;;;;;;;;5063960;28;20238;-18
2022/08/03 03:30:29;;;;;;;10.35;3.42;;;;;;;;;;5061321;28;20701;-17
2022/08/03 03:32:57;;;;;;;8.32;3.03;;;;;;;;;;5072543;28;20240;-18
2022/08/03 03:35:24;;;;;;;7.65;3.10;;;;;;;;;;5072769;28;20726;-18
2022/08/03 03:37:53;;;;;;;9.38;3.40;;;;;;;;;;5072746;28;20226;-17
2022/08/03 03:40:21;;;;;;;8.75;3.08;;;;;;;;;;5066654;28;20235;-17
2022/08/03 03:42:48;;;;;;;7.60;3.20;;;;;;;;;;5072665;28;20225;-17
2022/08/03 03:45:15;;;;;;;9.07;2.65;;;;;;;;;;5070515;28;20230;-17
2022/08/03 03:47:43;;;;;;;7.65;3.35;;;;;;;;;;5070561;28;20229;-17
2022/08/03 03:50:10;;;;;;;10.45;3.45;;;;;;;;;;5063003;28;20223;-17
2022/08/03 03:52:38;;;;;;;7.45;3.33;;;;;;;;;;5066958;28;20672;-17
2022/08/03 03:55:07;;;;;;;8.05;3.40;;;;;;;;;;5072183;28;20670;-18
2022/08/03 03:57:35;;;;;;;8.63;3.38;;;;;;;;;;5072224;28;20786;-18
2022/08/03 04:00:02;;;;;;;9.48;3.08;;;;;;;;;;5071161;28;20239;-18
2022/08/03 04:02:29;;;;;;;9.18;3.33;;;;;;;;;;5064924;28;20229;-17
2022/08/03 04:13:15;;;;;;;11.50;3.83;;;;;;;;;;5049015;28;20697;-17
2022/08/03 04:15:42;;;;;;;5.85;3.45;;;;;;;;;;5051924;28;20232;-18
2022/08/03 04:18:10;;;;;;;12.35;3.55;;;;;;;;;;5063631;28;20230;-17
2022/08/03 04:20:37;;;;;;;7.40;3.28;;;;;;;;;;5067842;28;20717;-17
2022/08/03 04:23:05;;;;;;;10.85;3.80;;;;;;;;;;5053217;28;20226;-17
2022/08/03 04:25:43;;;;;;;10.93;3.70;;;;;;;;;;5050984;28;20234;-17
2022/08/03 04:28:10;;;;;;;6.03;3.53;;;;;;;;;;5050566;28;20250;-18
2022/08/03 04:30:58;;;;;;;8.95;4.28;;;;;;;;;;5046529;28;20237;-17
2022/08/03 04:33:26;;;;;;;12.02;4.07;;;;;;;;;;5048286;28;20238;-18
2022/08/03 04:35:56;;;;;;;6.47;3.90;;;;;;;;;;5050853;28;20241;-17
2022/08/03 04:38:29;;;;;;;6.72;3.10;;;;;;;;;;5043452;28;20254;-17
2022/08/03 04:40:58;;;;;;;10.02;3.83;;;;;;;;;;5039097;28;20234;-17
2022/08/03 04:43:25;;;;;;;9.35;3.75;;;;;;;;;;5048250;28;20237;-18
2022/08/03 04:45:52;;;;;;;8.85;3.83;;;;;;;;;;5047072;28;20226;-18
2022/08/03 04:48:20;;;;;;;9.27;4.30;;;;;;;;;;5050353;28;20246;-18
2022/08/03 04:50:47;;;;;;;8.65;4.38;;;;;;;;;;5046405;28;20232;-18
2022/08/03 04:53:14;;;;;;;11.60;4.78;;;;;;;;;;5047823;28;20248;-18
2022/08/03 04:55:42;;;;;;;8.02;3.88;;;;;;;;;;5046282;28;20682;-18
2022/08/03 04:58:11;;;;;;;11.70;4.57;;;;;;;;;;5047284;28;20230;-18
2022/08/03 05:00:39;;;;;;;10.85;4.25;;;;;;;;;;5049790;28;20418;-18
2022/08/03 05:03:06;;;;;;;8.25;3.83;;;;;;;;;;5049221;28;20909;-18
2022/08/03 05:05:51;;;;;;;11.05;3.95;;;;;;;;;;5050873;28;20226;-18
2022/08/03 05:08:19;;;;;;;7.68;4.22;;;;;;;;;;5054093;28;20279;-17
2022/08/03 05:10:54;;;;;;;11.18;4.40;;;;;;;;;;5071058;28;20241;-18
2022/08/03 05:13:26;;;;;;;21.63;4.28;;;;;;;;;;5070804;28;20234;-18
2022/08/03 05:15:54;;;;;;;12.45;5.05;;;;;;;;;;5064061;28;20237;-18
2022/08/03 05:18:21;;;;;;;10.77;4.45;;;;;;;;;;5059732;28;20232;-18
2022/08/03 05:20:48;;;;;;;9.10;4.38;;;;;;;;;;5059828;28;20363;-18
2022/08/03 05:23:16;;;;;;;9.38;5.25;;;;;;;;;;5069563;28;20726;-18
2022/08/03 05:25:43;;;;;;;14.27;5.50;;;;;;;;;;5070933;28;20701;-18
2022/08/03 05:28:16;;;;;;;12.45;5.47;;;;;;;;;;5043208;28;21131;-18
2022/08/03 05:30:45;;;;;;;12.95;5.45;;;;;;;;;;5050645;28;20706;-17
2022/08/03 05:33:12;;;;;;;10.65;5.75;;;;;;;;;;5050114;28;20229;-18
2022/08/03 05:35:39;;;;;;;17.45;5.82;;;;;;;;;;5050346;28;20249;-18
2022/08/03 05:38:27;;;;;;;10.63;5.80;;;;;;;;;;5051007;28;20229;-18
2022/08/03 05:41:01;;;;;;;10.48;5.65;;;;;;;;;;5049895;28;20335;-18
2022/08/03 05:43:49;;;;;;;13.40;5.88;;;;;;;;;;5052040;28;20633;-18
2022/08/03 05:46:17;;;;;;;10.65;5.38;;;;;;;;;;5040340;28;20222;-18
2022/08/03 05:48:45;;;;;;;12.75;6.25;;;;;;;;;;5050114;28;20333;-18
2022/08/03 05:51:12;;;;;;;12.98;6.70;;;;;;;;;;5053148;28;20723;-18
2022/08/03 05:53:40;;;;;;;16.05;6.32;;;;;;;;;;5050652;28;20237;-18
2022/08/03 05:56:07;;;;;;;15.43;6.60;;;;;;;;;;5050304;28;20701;-18
2022/08/03 05:58:41;;;;;;;18.95;7.30;;;;;;;;;;5049726;28;20771;-18
2022/08/03 06:01:08;;;;;;;17.83;7.18;;;;;;;;;;5049944;28;20237;-17
2022/08/03 06:03:37;;;;;;;16.00;7.32;;;;;;;;;;5038901;28;20237;-17
2022/08/03 06:06:04;;;;;;;16.13;7.13;;;;;;;;;;5050292;28;20230;-18
2022/08/03 06:08:32;;;;;;;13.00;6.22;;;;;;;;;;5050503;28;20244;-17
2022/08/03 06:10:59;;;;;;;12.52;6.00;;;;;;;;;;5050396;28;20328;-17
2022/08/03 06:13:27;;;;;;;19.65;7.53;;;;;;;;;;5049474;28;20229;-18
2022/08/03 06:15:54;;;;;;;14.05;6.35;;;;;;;;;;5050348;28;20229;-18
2022/08/03 06:18:23;;;;;;;14.38;6.28;;;;;;;;;;5049850;28;20229;-18
2022/08/03 06:20:52;;;;;;;15.68;6.50;;;;;;;;;;5049902;28;20281;-18
2022/08/03 06:23:19;;;;;;;15.52;5.78;;;;;;;;;;5049119;28;21106;-17
2022/08/03 06:25:46;;;;;;;13.93;6.15;;;;;;;;;;5053483;28;20689;-17
2022/08/03 06:28:14;;;;;;;16.08;5.85;;;;;;;;;;5055033;28;20233;-17
2022/08/03 06:31:01;;;;;;;20.77;6.85;;;;;;;;;;5066120;28;20240;-17
2022/08/03 06:33:29;;;;;;;14.52;5.50;;;;;;;;;;5065451;28;20230;-17
2022/08/03 06:36:17;;;;;;;15.90;5.68;;;;;;;;;;5058079;28;20225;-17
2022/08/03 06:38:45;;;;;;;14.05;5.25;;;;;;;;;;5073495;28;20229;-18
2022/08/03 06:41:12;;;;;;;14.77;5.63;;;;;;;;;;5073811;28;20257;-18
2022/08/03 06:43:41;;;;;;;17.52;5.03;;;;;;;;;;5073523;28;20230;-18
2022/08/03 06:46:28;;;;;;;17.10;5.18;;;;;;;;;;5060865;28;20238;-18
2022/08/03 06:48:56;;;;;;;17.85;4.68;;;;;;;;;;5055051;28;20732;-18
2022/08/03 06:51:25;;;;;;;20.63;4.95;;;;;;;;;;5052766;28;20233;-18
2022/08/03 06:54:12;;;;;;;10.38;4.90;;;;;;;;;;5040716;28;20285;-18
2022/08/03 06:56:39;;;;;;;12.65;4.60;;;;;;;;;;5049836;28;21691;-18
2022/08/03 06:59:07;;;;;;;14.35;4.72;;;;;;;;;;5052787;28;20234;-18
2022/08/03 07:01:34;;;;;;;18.77;5.45;;;;;;;;;;5052868;28;20232;-18
2022/08/03 07:04:02;;;;;;;14.63;4.75;;;;;;;;;;5070011;28;20619;-17
2022/08/03 07:06:31;;;;;;;13.20;4.40;;;;;;;;;;5063307;28;20292;-17
2022/08/03 07:08:58;;;;;;;12.77;3.92;;;;;;;;;;5054798;28;20234;-17
2022/08/03 07:11:27;;;;;;;12.70;4.60;;;;;;;;;;5072798;28;20248;-18
2022/08/03 07:13:55;;;;;;;9.40;4.40;;;;;;;;;;5072153;28;20225;-18
2022/08/03 07:16:22;;;;;;;15.40;4.07;;;;;;;;;;5069524;28;20355;-18
2022/08/03 07:18:50;;;;;;;9.32;3.50;;;;;;;;;;5063738;28;20234;-18
2022/08/03 07:21:17;;;;;;;12.38;4.10;;;;;;;;;;5072066;28;20248;-18
2022/08/03 07:23:46;;;;;;;17.00;3.95;;;;;;;;;;5072799;28;20229;-18
2022/08/03 07:26:13;;;;;;;9.07;3.30;;;;;;;;;;5072471;28;20622;-17
2022/08/03 07:28:40;;;;;;;15.32;3.80;;;;;;;;;;5073186;28;20232;-17
2022/08/03 07:31:08;;;;;;;11.00;3.45;;;;;;;;;;5057833;28;22223;-17
2022/08/03 07:33:35;;;;;;;15.23;3.45;;;;;;;;;;5072580;28;20240;-18
2022/08/03 07:36:03;;;;;;;14.02;3.47;;;;;;;;;;5072455;28;20289;-17
2022/08/03 07:38:30;;;;;;;18.38;3.40;;;;;;;;;;5071969;28;20684;-18
2022/08/03 07:40:59;;;;;;;18.65;3.90;;;;;;;;;;5071090;28;20715;-18
2022/08/03 07:43:26;;;;;;;10.70;3.35;;;;;;;;;;5067768;28;20237;-18
2022/08/03 07:45:54;;;;;;;16.77;3.35;;;;;;;;;;5052308;28;20226;-18
2022/08/03 07:48:21;;;;;;;15.35;3.50;;;;;;;;;;5051590;28;20226;-18
2022/08/03 07:50:49;;;;;;;11.77;2.60;;;;;;;;;;5052439;28;20723;-18
2022/08/03 07:53:17;;;;;;;12.75;2.92;;;;;;;;;;5037215;28;20237;-18
2022/08/03 07:55:44;;;;;;;16.98;3.20;;;;;;;;;;5052175;28;20314;-18
2022/08/03 07:58:14;;;;;;;12.30;3.63;;;;;;;;;;5052024;28;20230;-17
2022/08/03 08:00:45;;;;;;;15.55;3.05;;;;;;;;;;5051909;28;20660;-18
2022/08/03 08:03:13;;;;;;;12.95;3.03;;;;;;;;;;5049081;28;20230;-18
2022/08/03 08:05:40;;;;;;;13.23;3.05;;;;;;;;;;5035966;28;20229;-17
2022/08/03 08:08:08;;;;;;;13.13;3.08;;;;;;;;;;5051101;28;20226;-18
2022/08/03 08:10:35;;;;;;;13.38;2.92;;;;;;;;;;5051253;28;20249;-18
2022/08/03 08:13:02;;;;;;;13.50;2.63;;;;;;;;;;5051982;28;20233;-18
2022/08/03 08:15:31;;;;;;;15.45;3.60;;;;;;;;;;5050701;28;21159;-18
2022/08/03 08:18:00;;;;;;;20.90;3.00;;;;;;;;;;5051573;28;20234;-18
2022/08/03 08:20:29;;;;;;;15.80;3.95;;;;;;;;;;5051135;28;20230;-17
2022/08/03 08:22:58;;;;;;;11.38;3.05;;;;;;;;;;5051494;28;20241;-18
2022/08/03 08:25:27;;;;;;;12.13;2.70;;;;;;;;;;5051306;28;20226;-18
2022/08/03 08:27:55;;;;;;;15.55;3.40;;;;;;;;;;5050940;28;21011;-17
2022/08/03 08:30:44;;;;;;;13.65;2.72;;;;;;;;;;5051114;28;20233;-18
2022/08/03 08:33:11;;;;;;;12.02;3.00;;;;;;;;;;5051329;28;20701;-18
2022/08/03 08:35:50;;;;;;;16.95;3.97;;;;;;;;;;5051057;28;20697;-18
2022/08/03 08:38:17;;;;;;;12.88;3.33;;;;;;;;;;5070609;28;20729;-18
2022/08/03 08:40:45;;;;;;;20.02;4.00;;;;;;;;;;5072030;28;20222;-17
2022/08/03 08:43:12;;;;;;;11.10;2.80;;;;;;;;;;5057196;28;20233;-18
2022/08/03 08:45:40;;;;;;;19.45;4.00;;;;;;;;;;5066765;28;20721;-18
2022/08/03 08:48:09;;;;;;;15.57;2.97;;;;;;;;;;5055620;28;20234;-18
2022/08/03 08:50:36;;;;;;;13.60;3.88;;;;;;;;;;5071515;28;20934;-18
2022/08/03 08:53:03;;;;;;;11.27;3.35;;;;;;;;;;5070592;28;20677;-18
2022/08/03 08:55:31;;;;;;;10.95;3.17;;;;;;;;;;5071385;28;20226;-18
2022/08/03 08:58:19;;;;;;;12.25;3.10;;;;;;;;;;5062622;28;20237;-18
2022/08/03 09:00:47;;;;;;;12.60;3.63;;;;;;;;;;5065620;28;20262;-18
2022/08/03 09:03:16;;;;;;;12.30;3.00;;;;;;;;;;5054281;28;20316;-17
2022/08/03 09:05:56;;;;;;;18.45;3.55;;;;;;;;;;5071384;28;20229;-18
2022/08/03 09:08:24;;;;;;;16.33;3.13;;;;;;;;;;5068229;28;20248;-17
2022/08/03 09:10:51;;;;;;;11.25;3.05;;;;;;;;;;5071263;28;20237;-17
2022/08/03 09:13:18;;;;;;;16.92;3.80;;;;;;;;;;5071223;28;20239;-19
2022/08/03 09:15:46;;;;;;;14.38;3.42;;;;;;;;;;5070587;28;20221;-17
2022/08/03 09:18:29;;;;;;;14.98;3.25;;;;;;;;;;5064793;28;20237;-17
2022/08/03 09:21:12;;;;;;;14.52;3.55;;;;;;;;;;5057192;28;20331;-18
2022/08/03 09:23:58;;;;;;;12.77;3.00;;;;;;;;;;5049325;28;20312;-17
2022/08/03 09:26:31;;;;;;;14.32;3.20;;;;;;;;;;5071017;28;20225;-17
2022/08/03 09:28:59;;;;;;;20.10;4.00;;;;;;;;;;5071048;28;20233;-17
2022/08/03 09:31:36;;;;;;;19.75;3.83;;;;;;;;;;5059286;28;20237;-17
2022/08/03 09:34:06;;;;;;;16.80;3.45;;;;;;;;;;5070983;28;20232;-17
2022/08/03 09:36:34;;;;;;;15.95;3.63;;;;;;;;;;5070571;28;20697;-17
2022/08/03 09:39:04;;;;;;;18.40;3.55;;;;;;;;;;5070937;28;20708;-17
2022/08/03 09:41:32;;;;;;;18.75;3.30;;;;;;;;;;5067250;28;20779;-17
2022/08/03 09:43:59;;;;;;;14.15;3.47;;;;;;;;;;5059567;28;20237;-17
2022/08/03 09:46:30;;;;;;;17.38;3.53;;;;;;;;;;5059084;28;20230;-17
2022/08/03 09:49:11;;;;;;;17.98;3.35;;;;;;;;;;5047557;28;21088;-17
2022/08/03 09:51:39;;;;;;;16.23;3.63;;;;;;;;;;5070568;28;20376;-17
2022/08/03 09:54:27;;;;;;;11.80;3.05;;;;;;;;;;5062551;28;20221;-17
2022/08/03 09:56:54;;;;;;;14.40;3.88;;;;;;;;;;5070679;28;20229;-18
2022/08/03 09:59:25;;;;;;;18.23;3.92;;;;;;;;;;5072356;28;21685;-18
2022/08/03 10:01:53;;;;;;;17.50;3.95;;;;;;;;;;5062188;28;21046;-17
2022/08/03 10:04:22;;;;;;;17.80;3.38;;;;;;;;;;5073564;28;20226;-17
2022/08/03 10:07:02;;;;;;;19.50;3.85;;;;;;;;;;5074210;28;20225;-17
2022/08/03 10:09:29;;;;;;;17.55;3.17;;;;;;;;;;5073357;28;20229;-17
2022/08/03 10:11:58;;;;;;;13.65;3.15;;;;;;;;;;5059532;28;20242;-17
2022/08/03 10:14:30;;;;;;;17.75;3.55;;;;;;;;;;5070523;28;20964;-17
2022/08/03 10:16:57;;;;;;;15.77;3.08;;;;;;;;;;5065621;28;20998;-17
2022/08/03 10:19:26;;;;;;;11.60;3.15;;;;;;;;;;5073940;28;20239;-17
2022/08/03 10:21:55;;;;;;;16.58;2.95;;;;;;;;;;5073272;28;20263;-17
2022/08/03 10:24:24;;;;;;;16.98;3.03;;;;;;;;;;5059704;28;20251;-17
2022/08/03 10:26:51;;;;;;;16.00;3.40;;;;;;;;;;5071363;28;20237;-17
2022/08/03 10:29:21;;;;;;;17.98;3.65;;;;;;;;;;5073809;28;20945;-17
2022/08/03 10:31:48;;;;;;;15.55;3.47;;;;;;;;;;5070510;28;20627;-17
2022/08/03 10:34:25;;;;;;;15.35;3.53;;;;;;;;;;5073208;28;20229;-17
2022/08/03 10:36:56;;;;;;;19.70;3.58;;;;;;;;;;5066786;28;20245;-17
2022/08/03 10:39:24;;;;;;;18.67;3.20;;;;;;;;;;5053390;28;20317;-18
2022/08/03 10:41:51;;;;;;;15.90;3.67;;;;;;;;;;5037064;28;20230;-16
2022/08/03 10:44:19;;;;;;;19.85;3.75;;;;;;;;;;5053077;28;20298;-16
2022/08/03 10:46:47;;;;;;;20.88;4.03;;;;;;;;;;5051248;28;20245;-18
2022/08/03 10:49:14;;;;;;;15.75;3.15;;;;;;;;;;5052986;28;20234;-18
2022/08/03 10:51:42;;;;;;;22.05;3.90;;;;;;;;;;5051502;28;21084;-17
2022/08/03 10:54:24;;;;;;;18.48;3.47;;;;;;;;;;5051963;28;20234;-18
2022/08/03 10:59:56;;;;;;;13.75;3.10;;;;;;;;;;5041350;28;20231;-19
2022/08/03 11:02:23;;;;;;;18.98;3.83;;;;;;;;;;5049695;28;20234;-18
2022/08/03 11:04:51;;;;;;;15.32;3.40;;;;;;;;;;5051028;28;20290;-17
2022/08/03 11:07:19;;;;;;;15.90;2.90;;;;;;;;;;5050950;28;20233;-18
2022/08/03 11:09:48;;;;;;;20.08;3.67;;;;;;;;;;5050905;28;20257;-17
2022/08/03 11:12:23;;;;;;;15.95;3.38;;;;;;;;;;5052835;28;20238;-18
2022/08/03 11:14:58;;;;;;;17.67;2.65;;;;;;;;;;5052640;28;20240;-18
2022/08/03 11:17:26;;;;;;;14.65;3.40;;;;;;;;;;5052273;28;20226;-15
2022/08/03 11:19:53;;;;;;;14.40;3.38;;;;;;;;;;5052818;28;20234;-16
2022/08/03 11:22:24;;;;;;;11.30;2.55;;;;;;;;;;5051966;28;20340;-23
2022/08/03 11:24:58;;;;;;;15.55;3.17;;;;;;;;;;5052233;28;20279;-16
2022/08/03 11:27:28;;;;;;;19.88;3.38;;;;;;;;;;5053127;28;20237;-18
2022/08/03 11:29:56;;;;;;;12.98;2.58;;;;;;;;;;5052311;28;20230;-17
2022/08/03 11:32:42;;;;;;;12.07;2.83;;;;;;;;;;5051905;28;20234;-17
2022/08/03 11:35:15;;;;;;;16.88;3.00;;;;;;;;;;5051985;28;20281;-17
2022/08/03 11:37:57;;;;;;;14.40;3.08;;;;;;;;;;5066696;28;20237;-17
2022/08/03 11:40:35;;;;;;;17.98;3.85;;;;;;;;;;5041393;28;20242;-18
2022/08/03 11:43:04;;;;;;;13.23;2.70;;;;;;;;;;5067215;28;20288;-17
2022/08/03 11:45:31;;;;;;;16.80;2.80;;;;;;;;;;5068908;28;20227;-17
2022/08/03 11:47:59;;;;;;;14.52;3.08;;;;;;;;;;5052997;28;20740;-17
2022/08/03 11:50:26;;;;;;;20.58;3.22;;;;;;;;;;5068202;28;20226;-17
2022/08/03 11:52:54;;;;;;;10.63;2.70;;;;;;;;;;5072524;28;20244;-18
2022/08/03 11:55:21;;;;;;;14.48;3.70;;;;;;;;;;5058385;28;20225;-18
2022/08/03 11:57:48;;;;;;;11.90;2.67;;;;;;;;;;5072467;28;20303;-17
2022/08/03 12:00:37;;;;;;;16.70;3.05;;;;;;;;;;5040502;28;20241;-17
2022/08/03 12:03:05;;;;;;;12.68;2.95;;;;;;;;;;5065200;28;20257;-17
2022/08/03 12:05:36;;;;;;;16.00;2.92;;;;;;;;;;5064630;28;20320;-18
2022/08/03 12:08:05;;;;;;;14.57;3.22;;;;;;;;;;5072407;28;20265;-17
2022/08/03 12:10:33;;;;;;;13.00;2.75;;;;;;;;;;5072065;28;20229;-17
2022/08/03 12:13:01;;;;;;;16.02;3.50;;;;;;;;;;5072092;28;20237;-17
2022/08/03 12:15:28;;;;;;;17.17;3.38;;;;;;;;;;5067387;28;20245;-17
2022/08/03 12:17:57;;;;;;;13.15;2.92;;;;;;;;;;5060528;28;20719;-17
2022/08/03 12:20:25;;;;;;;17.00;2.90;;;;;;;;;;5071689;28;20265;-18
2022/08/03 12:23:02;;;;;;;17.27;3.40;;;;;;;;;;5071196;28;21066;-17
2022/08/03 12:25:30;;;;;;;19.65;3.65;;;;;;;;;;5072167;28;20229;-18
2022/08/03 12:28:09;;;;;;;17.45;3.15;;;;;;;;;;5063533;28;20244;-17
2022/08/03 12:30:56;;;;;;;22.35;3.33;;;;;;;;;;5068404;28;20700;-18
2022/08/03 12:33:26;;;;;;;17.80;3.40;;;;;;;;;;5071424;28;20230;-17
2022/08/03 12:36:04;;;;;;;15.13;3.65;;;;;;;;;;5072022;28;20229;-17
2022/08/03 12:38:31;;;;;;;21.23;3.38;;;;;;;;;;5049210;28;20716;-17
2022/08/03 12:41:03;;;;;;;18.95;3.85;;;;;;;;;;5071630;28;20240;-18
2022/08/03 12:43:31;;;;;;;23.98;3.50;;;;;;;;;;5071341;28;20255;-17
2022/08/03 12:46:12;;;;;;;16.67;3.70;;;;;;;;;;5062852;28;20592;-17
2022/08/03 12:49:00;;;;;;;15.77;3.45;;;;;;;;;;5039888;28;20244;-17
2022/08/03 12:51:27;;;;;;;18.65;3.45;;;;;;;;;;5066549;28;20229;-17
2022/08/03 12:53:55;;;;;;;18.52;3.17;;;;;;;;;;5071338;28;20237;-17
2022/08/03 12:56:22;;;;;;;16.83;3.60;;;;;;;;;;5071585;28;20244;-17
2022/08/03 12:58:50;;;;;;;19.88;3.28;;;;;;;;;;5071474;28;20229;-18
2022/08/03 13:01:17;;;;;;;21.70;3.13;;;;;;;;;;5054299;28;20226;-18
2022/08/03 13:03:47;;;;;;;14.07;3.22;;;;;;;;;;5069946;28;20328;-18
2022/08/03 13:06:18;;;;;;;19.00;3.75;;;;;;;;;;5070564;28;20230;-18
2022/08/03 13:08:46;;;;;;;19.70;3.97;;;;;;;;;;5056740;28;20244;-18
2022/08/03 13:11:20;;;;;;;14.52;2.95;;;;;;;;;;5060844;28;20974;-18
2022/08/03 13:13:48;;;;;;;18.80;3.78;;;;;;;;;;5065971;28;20274;-17
2022/08/03 13:16:15;;;;;;;13.35;2.60;;;;;;;;;;5060187;28;20276;-17
2022/08/03 13:18:46;;;;;;;12.02;2.95;;;;;;;;;;5071097;28;20229;-18
2022/08/03 13:21:14;;;;;;;13.93;2.90;;;;;;;;;;5069339;28;20255;-17
2022/08/03 13:23:43;;;;;;;13.73;3.28;;;;;;;;;;5071034;28;20248;-18
2022/08/03 13:26:10;;;;;;;19.48;3.40;;;;;;;;;;5071105;28;20229;-18
2022/08/03 13:28:38;;;;;;;10.25;2.40;;;;;;;;;;5057583;28;20238;-18
2022/08/03 13:31:06;;;;;;;16.52;3.17;;;;;;;;;;5066283;28;20231;-17
2022/08/03 13:33:33;;;;;;;14.90;2.80;;;;;;;;;;5058196;28;20317;-17
2022/08/03 13:36:00;;;;;;;9.45;2.05;;;;;;;;;;5068833;28;20238;-17
2022/08/03 13:38:28;;;;;;;10.90;2.53;;;;;;;;;;5070966;28;20229;-18
2022/08/03 13:40:57;;;;;;;12.77;2.35;;;;;;;;;;5071187;28;20763;-17
2022/08/03 13:43:25;;;;;;;10.93;2.50;;;;;;;;;;5067047;28;20237;-17
2022/08/03 13:45:52;;;;;;;16.65;2.97;;;;;;;;;;5054956;28;20660;-17
2022/08/03 13:48:24;;;;;;;15.48;2.60;;;;;;;;;;5068549;28;20309;-17
2022/08/03 13:51:04;;;;;;;11.80;2.50;;;;;;;;;;5070847;28;20233;-18
2022/08/03 13:53:48;;;;;;;10.88;2.88;;;;;;;;;;5043417;28;20799;-17
2022/08/03 13:56:17;;;;;;;8.93;2.45;;;;;;;;;;5064451;28;20259;-17
2022/08/03 13:58:44;;;;;;;11.00;2.30;;;;;;;;;;5070811;28;20229;-18
2022/08/03 14:01:12;;;;;;;13.57;2.55;;;;;;;;;;5061295;28;20237;-18
2022/08/03 14:03:39;;;;;;;9.10;1.92;;;;;;;;;;5067985;28;20237;-17
2022/08/03 14:06:06;;;;;;;10.15;2.20;;;;;;;;;;5061165;28;20226;-17
2022/08/03 14:08:34;;;;;;;9.43;2.08;;;;;;;;;;5066731;28;20221;-17
2022/08/03 14:11:01;;;;;;;12.93;2.03;;;;;;;;;;5070714;28;20225;-17
2022/08/03 14:13:30;;;;;;;8.02;1.80;;;;;;;;;;5070166;28;20244;-17
2022/08/03 14:15:57;;;;;;;12.05;1.98;;;;;;;;;;5050808;28;20317;-17
2022/08/03 14:18:25;;;;;;;12.45;1.90;;;;;;;;;;5063390;28;20234;-17
2022/08/03 14:20:59;;;;;;;11.00;1.80;;;;;;;;;;5041115;28;20251;-17
2022/08/03 14:23:32;;;;;;;9.73;1.88;;;;;;;;;;5070505;28;20684;-17
2022/08/03 14:25:59;;;;;;;9.82;2.00;;;;;;;;;;5070202;28;20712;-17
2022/08/03 14:28:27;;;;;;;7.95;2.03;;;;;;;;;;5061963;28;20229;-17
2022/08/03 14:30:58;;;;;;;8.57;2.00;;;;;;;;;;5067147;28;20688;-18
2022/08/03 14:33:27;;;;;;;6.80;1.90;;;;;;;;;;5069831;28;20244;-18
2022/08/03 14:35:54;;;;;;;9.38;2.17;;;;;;;;;;5069908;28;20268;-17
2022/08/03 14:38:21;;;;;;;11.13;2.00;;;;;;;;;;5063966;28;20236;-16
2022/08/03 14:40:50;;;;;;;7.47;1.70;;;;;;;;;;5070233;28;20616;-17
2022/08/03 14:43:20;;;;;;;7.90;1.63;;;;;;;;;;5070011;28;20241;-17
2022/08/03 14:45:47;;;;;;;6.63;2.00;;;;;;;;;;5055236;28;20325;-17
2022/08/03 14:48:16;;;;;;;9.52;1.70;;;;;;;;;;5066682;28;20231;-17
2022/08/03 14:51:04;;;;;;;6.65;1.75;;;;;;;;;;5065556;28;20234;-16
2022/08/03 14:53:31;;;;;;;8.50;1.70;;;;;;;;;;5073459;28;20244;-16
2022/08/03 14:55:59;;;;;;;5.22;1.50;;;;;;;;;;5073380;28;20316;-17
2022/08/03 14:58:26;;;;;;;7.60;1.58;;;;;;;;;;5058879;28;20608;-16
2022/08/03 15:00:54;;;;;;;7.07;2.05;;;;;;;;;;5059677;28;20311;-16
2022/08/03 15:03:23;;;;;;;4.65;1.80;;;;;;;;;;5068179;28;20237;-16